Rockton, Pennsylvania
Current Conditions -  °F | °C
As of 10:54 PM on Tuesday 21 Oct 2014 (Local Time) from KFIG Reporting Station
Overcast Overcast  
Wind Chill: 47°   Ceiling: 4300
Heat Index: 49°   Visibility: 10mi
Dew Point: 46°   Wind: 6mph
Humidity: 90%   Direction: 10°N
Pressure: 29.98"   Gusts: NA
Location:  41.08°N, 78.65°W
Report Text: KFIG 220254Z AUTO 01005KT 10SM FEW032 OVC043 09/08 A2998 RMK AO2 SLP155 T00940078 51010
Loading
Personal Weather Stations






























Interactive Weather Map
Tropical Storm Tracking
New forecast layout! Learn more

10-Day Weather Forecast

Advertisements
Track Severe Weather on mobile